Time;durP1;ratioP1;P1;durP2;ratioP2;P2;SDS_P1;SDS_P2;PMS_P1;PMS_P2;Temp;Humidity;BMP_temperature;BMP_pressure;BME280_temperature;BME280_humidity;BME280_pressure;Samples;Min_cycle;Max_cycle;Signal;HPM_P1;HPM_P2
2021/09/18 00:00:26;;;;;;;0.65;0.63;;;24.60;73.30;;;;;;5127024;28;20023;-36
2021/09/18 00:02:52;;;;;;;0.65;0.65;;;24.60;73.40;;;;;;5127601;28;20024;-35
2021/09/18 00:05:18;;;;;;;0.55;0.55;;;24.60;73.40;;;;;;5126871;28;20441;-37
2021/09/18 00:07:44;;;;;;;0.65;0.65;;;24.60;73.60;;;;;;5127178;28;20023;-37
2021/09/18 00:10:11;;;;;;;0.88;0.70;;;24.60;73.80;;;;;;5127275;28;20019;-37
2021/09/18 00:12:37;;;;;;;1.02;0.75;;;24.60;73.90;;;;;;5126998;28;20041;-37
2021/09/18 00:15:03;;;;;;;0.60;0.60;;;24.60;74.10;;;;;;5127347;28;20032;-37
2021/09/18 00:17:30;;;;;;;1.00;0.90;;;24.60;74.10;;;;;;5127032;28;20140;-37
2021/09/18 00:19:56;;;;;;;1.87;0.67;;;24.60;74.30;;;;;;5127167;28;20042;-37
2021/09/18 00:22:22;;;;;;;0.90;0.90;;;24.60;74.40;;;;;;5127121;28;20260;-37
2021/09/18 00:24:48;;;;;;;0.70;0.70;;;24.60;74.40;;;;;;5126980;28;20083;-37
2021/09/18 00:27:14;;;;;;;1.10;0.60;;;24.60;74.40;;;;;;5108623;28;20079;-37
2021/09/18 00:29:40;;;;;;;0.80;0.80;;;24.60;74.30;;;;;;5126909;28;20023;-37
2021/09/18 00:32:07;;;;;;;0.90;0.70;;;24.60;74.30;;;;;;5126754;28;20036;-37
2021/09/18 00:34:33;;;;;;;0.50;0.50;;;24.60;74.10;;;;;;5122937;28;20031;-37
2021/09/18 00:36:59;;;;;;;0.68;0.57;;;24.60;74.10;;;;;;5126883;28;20024;-38
2021/09/18 00:39:25;;;;;;;0.70;0.70;;;24.60;74.10;;;;;;5126176;28;20027;-37
2021/09/18 00:41:51;;;;;;;0.68;0.52;;;24.60;74.10;;;;;;5126196;28;20087;-37
2021/09/18 00:44:18;;;;;;;1.08;0.85;;;24.60;74.10;;;;;;5108448;28;20085;-37
2021/09/18 00:46:48;;;;;;;1.13;0.60;;;24.60;74.10;;;;;;5126467;28;20032;-37
2021/09/18 00:49:14;;;;;;;1.13;0.80;;;24.60;74.20;;;;;;5118813;28;20040;-38
2021/09/18 00:51:40;;;;;;;1.15;0.80;;;24.60;74.30;;;;;;5105910;28;20161;-37
2021/09/18 00:54:07;;;;;;;0.82;0.80;;;24.60;74.30;;;;;;5106000;28;20047;-37
2021/09/18 00:56:33;;;;;;;0.80;0.80;;;24.60;74.40;;;;;;5071092;28;20021;-37
2021/09/18 00:58:59;;;;;;;1.00;0.90;;;24.60;74.40;;;;;;5087485;28;20060;-37
2021/09/18 01:01:25;;;;;;;0.85;0.80;;;24.60;74.40;;;;;;5087405;28;20025;-37
2021/09/18 01:03:51;;;;;;;0.80;0.77;;;24.60;74.40;;;;;;5105744;28;20024;-37
2021/09/18 01:06:18;;;;;;;0.65;0.65;;;24.60;74.40;;;;;;5105655;28;20020;-37
2021/09/18 01:08:44;;;;;;;0.70;0.70;;;24.60;74.50;;;;;;5087499;28;20031;-38
2021/09/18 01:11:10;;;;;;;0.80;0.70;;;24.60;74.40;;;;;;5070807;28;20039;-38
2021/09/18 01:13:36;;;;;;;1.13;0.70;;;24.60;74.40;;;;;;5105701;28;20039;-38
2021/09/18 01:16:03;;;;;;;1.10;0.70;;;24.60;74.40;;;;;;5105652;28;20016;-37
2021/09/18 01:18:29;;;;;;;0.90;0.80;;;24.60;74.30;;;;;;5105291;28;20032;-37
2021/09/18 01:20:55;;;;;;;0.77;0.77;;;24.60;74.40;;;;;;5105550;28;20020;-38
2021/09/18 01:23:22;;;;;;;0.85;0.85;;;24.70;74.50;;;;;;5105436;28;20580;-38
2021/09/18 01:25:48;;;;;;;1.00;0.95;;;24.60;74.40;;;;;;5105332;28;20095;-38
2021/09/18 01:28:14;;;;;;;0.65;0.65;;;24.60;74.40;;;;;;5105164;28;20031;-37
2021/09/18 01:30:40;;;;;;;1.07;0.83;;;24.60;74.50;;;;;;5104941;28;20039;-37
2021/09/18 01:33:07;;;;;;;0.60;0.60;;;24.60;74.40;;;;;;5105382;28;20469;-37
2021/09/18 01:35:34;;;;;;;0.82;0.80;;;24.60;74.40;;;;;;5105195;28;20020;-37
2021/09/18 01:38:00;;;;;;;1.00;0.90;;;24.60;74.50;;;;;;5086646;28;20066;-37
2021/09/18 01:40:28;;;;;;;0.90;0.90;;;24.60;74.50;;;;;;5105144;28;20027;-38
2021/09/18 01:42:55;;;;;;;0.93;0.80;;;24.60;74.50;;;;;;5105083;28;20322;-37
2021/09/18 01:45:21;;;;;;;0.70;0.70;;;24.60;74.50;;;;;;5105158;28;20070;-37
2021/09/18 01:47:56;;;;;;;0.75;0.70;;;24.60;74.50;;;;;;5104874;28;20032;-38
2021/09/18 01:50:47;;;;;;;1.55;0.75;;;24.60;74.60;;;;;;5121128;28;20051;-37
2021/09/18 01:53:14;;;;;;;0.93;0.90;;;24.60;74.60;;;;;;5125197;28;20055;-38
2021/09/18 01:55:43;;;;;;;0.93;0.73;;;24.60;74.60;;;;;;5125175;28;20083;-38
2021/09/18 01:58:09;;;;;;;1.50;1.02;;;24.60;74.60;;;;;;5125138;28;20024;-37
2021/09/18 02:00:40;;;;;;;0.95;0.95;;;24.60;74.60;;;;;;5124391;28;20119;-37
2021/09/18 02:03:06;;;;;;;1.00;0.70;;;24.60;74.70;;;;;;5125249;28;20032;-37
2021/09/18 02:05:32;;;;;;;1.15;0.80;;;24.60;74.70;;;;;;5125068;28;20353;-38
2021/09/18 02:07:59;;;;;;;0.83;0.80;;;24.60;74.80;;;;;;5125218;28;20035;-36
2021/09/18 02:10:26;;;;;;;0.70;0.70;;;24.60;74.80;;;;;;5124942;28;20049;-37
2021/09/18 02:12:53;;;;;;;2.45;0.80;;;24.60;74.80;;;;;;5124733;28;20095;-38
2021/09/18 02:15:20;;;;;;;0.90;0.90;;;24.60;74.80;;;;;;5106164;28;20518;-37
2021/09/18 02:17:46;;;;;;;0.73;0.73;;;24.60;75.00;;;;;;5124997;28;20499;-38
2021/09/18 02:20:14;;;;;;;0.90;0.90;;;24.60;74.90;;;;;;5106266;28;20031;-38
2021/09/18 02:22:41;;;;;;;0.80;0.80;;;24.60;74.90;;;;;;5125103;28;20051;-37
2021/09/18 02:25:07;;;;;;;1.15;0.90;;;24.60;74.90;;;;;;5124783;28;20035;-37
2021/09/18 02:27:34;;;;;;;0.90;0.90;;;24.60;74.90;;;;;;5106138;28;20027;-37
2021/09/18 02:30:00;;;;;;;1.30;0.80;;;24.60;74.90;;;;;;5124502;28;20222;-38
2021/09/18 02:32:26;;;;;;;1.75;0.70;;;24.60;74.90;;;;;;5124681;28;20028;-38
2021/09/18 02:34:52;;;;;;;1.73;0.87;;;24.60;74.90;;;;;;5124711;28;20042;-37
2021/09/18 02:37:20;;;;;;;0.80;0.80;;;24.60;74.90;;;;;;5124659;28;20358;-35
2021/09/18 02:39:46;;;;;;;1.05;0.80;;;24.50;74.90;;;;;;5119864;28;20475;-35
2021/09/18 02:42:12;;;;;;;1.20;1.10;;;24.60;75.00;;;;;;5085525;28;20035;-35
2021/09/18 02:44:38;;;;;;;0.98;0.98;;;24.50;74.90;;;;;;5118325;28;20260;-35
2021/09/18 02:47:04;;;;;;;2.50;0.80;;;24.50;74.90;;;;;;5124438;28;20023;-35
2021/09/18 02:49:31;;;;;;;1.05;0.90;;;24.50;74.90;;;;;;5124263;28;20044;-36
2021/09/18 02:51:57;;;;;;;1.25;0.90;;;24.50;74.80;;;;;;5124076;28;20039;-38
2021/09/18 02:54:24;;;;;;;0.85;0.80;;;24.50;74.90;;;;;;5124006;28;20907;-37
2021/09/18 02:56:50;;;;;;;1.55;1.00;;;24.50;74.90;;;;;;5124041;28;20036;-37
2021/09/18 02:59:16;;;;;;;1.47;1.00;;;24.50;74.90;;;;;;5124223;28;20053;-37
2021/09/18 03:01:42;;;;;;;1.20;0.98;;;24.50;74.90;;;;;;5124221;28;20024;-37
2021/09/18 03:04:08;;;;;;;0.90;0.70;;;24.50;74.80;;;;;;5123446;28;20024;-38
2021/09/18 03:06:34;;;;;;;1.23;0.75;;;24.50;74.80;;;;;;5124293;28;20094;-36
2021/09/18 03:09:01;;;;;;;1.20;1.00;;;24.50;74.80;;;;;;5124156;28;20028;-36
2021/09/18 03:11:27;;;;;;;1.08;0.85;;;24.50;74.70;;;;;;5124174;28;20024;-35
2021/09/18 03:13:53;;;;;;;1.10;0.90;;;24.50;74.60;;;;;;5123689;28;20032;-35
2021/09/18 03:16:19;;;;;;;1.38;0.80;;;24.50;74.60;;;;;;5124050;28;20031;-35
2021/09/18 03:18:45;;;;;;;1.17;1.02;;;24.50;74.50;;;;;;5123909;28;20031;-36
2021/09/18 03:21:12;;;;;;;2.10;0.90;;;24.50;74.50;;;;;;5124116;28;20488;-36
2021/09/18 03:23:38;;;;;;;0.80;0.80;;;24.50;74.60;;;;;;5124014;28;20036;-35
2021/09/18 03:26:04;;;;;;;1.80;0.95;;;24.50;74.60;;;;;;5123763;28;20032;-35
2021/09/18 03:28:30;;;;;;;1.02;0.93;;;24.40;74.60;;;;;;5123814;28;20035;-36
2021/09/18 03:30:56;;;;;;;2.30;0.90;;;24.40;74.60;;;;;;5123936;28;20020;-36
2021/09/18 03:33:22;;;;;;;1.95;1.00;;;24.50;74.80;;;;;;5123594;28;20038;-36
2021/09/18 03:35:50;;;;;;;2.17;1.00;;;24.40;74.60;;;;;;5124145;28;20184;-36
2021/09/18 03:38:15;;;;;;;;;;;24.40;74.70;;;;;;5124403;28;20087;-37
2021/09/18 03:40:42;;;;;;;1.45;1.02;;;24.40;74.60;;;;;;5123902;28;19911;-36
2021/09/18 03:43:08;;;;;;;1.13;1.05;;;24.40;74.60;;;;;;5123481;28;20029;-36
2021/09/18 03:45:34;;;;;;;0.90;0.90;;;24.40;74.50;;;;;;5123784;28;20028;-37
2021/09/18 03:48:00;;;;;;;1.20;0.93;;;24.40;74.60;;;;;;5123729;28;20028;-37
2021/09/18 03:50:27;;;;;;;2.10;0.98;;;24.40;75.20;;;;;;5123518;28;20047;-36
2021/09/18 03:52:53;;;;;;;0.85;0.85;;;24.40;74.40;;;;;;5123251;28;20028;-36
2021/09/18 03:55:19;;;;;;;2.60;1.00;;;24.40;74.40;;;;;;5082780;28;20241;-37
2021/09/18 03:57:45;;;;;;;1.20;1.10;;;24.40;74.40;;;;;;5082876;28;20020;-37
2021/09/18 04:00:12;;;;;;;1.02;0.93;;;24.40;74.40;;;;;;5083030;28;20020;-36
2021/09/18 04:02:38;;;;;;;1.08;0.70;;;24.40;74.50;;;;;;5086582;28;20020;-36
2021/09/18 04:05:04;;;;;;;1.35;0.95;;;24.40;74.40;;;;;;5104877;28;20027;-36
2021/09/18 04:07:31;;;;;;;1.83;1.00;;;24.30;74.30;;;;;;5103369;28;20035;-37
2021/09/18 04:09:57;;;;;;;2.08;1.20;;;24.30;74.30;;;;;;5103090;28;20049;-36
2021/09/18 04:12:23;;;;;;;1.20;0.90;;;24.30;74.40;;;;;;5103070;28;20088;-36
2021/09/18 04:14:49;;;;;;;1.63;1.10;;;24.30;74.30;;;;;;5120334;28;20543;-36
2021/09/18 04:17:16;;;;;;;1.20;1.10;;;24.30;74.30;;;;;;5127191;28;20357;-36
2021/09/18 04:19:42;;;;;;;1.75;1.00;;;24.30;74.40;;;;;;5126987;28;20030;-37
2021/09/18 04:22:08;;;;;;;0.90;0.65;;;24.30;74.30;;;;;;5127143;28;20042;-37
2021/09/18 04:24:36;;;;;;;1.10;1.00;;;24.30;74.30;;;;;;5126738;28;20058;-37
2021/09/18 04:27:02;;;;;;;0.90;0.90;;;24.30;75.10;;;;;;5127189;28;20050;-36
2021/09/18 04:29:28;;;;;;;1.85;0.90;;;24.30;74.40;;;;;;5126792;28;20400;-36
2021/09/18 04:31:54;;;;;;;1.10;1.00;;;24.30;74.40;;;;;;5119037;28;20012;-36
2021/09/18 04:34:20;;;;;;;1.02;0.98;;;24.30;74.40;;;;;;5106234;28;20449;-37
2021/09/18 04:36:46;;;;;;;1.10;1.00;;;24.30;74.30;;;;;;5106372;28;20046;-37
2021/09/18 04:39:13;;;;;;;1.05;1.05;;;24.30;74.40;;;;;;5106607;28;20042;-37
2021/09/18 04:41:39;;;;;;;1.30;1.20;;;24.30;74.40;;;;;;5106183;28;20626;-36
2021/09/18 04:44:05;;;;;;;1.23;1.00;;;24.30;75.10;;;;;;5115699;28;20032;-37
2021/09/18 04:46:32;;;;;;;1.27;1.13;;;24.20;74.40;;;;;;5108422;28;20036;-36
2021/09/18 04:48:58;;;;;;;1.00;0.88;;;24.20;74.50;;;;;;5129586;27;20094;-37
2021/09/18 04:51:24;;;;;;;1.42;0.90;;;24.20;74.40;;;;;;5127538;27;20024;-36
2021/09/18 04:53:50;;;;;;;2.53;1.15;;;24.20;74.40;;;;;;5126203;28;20042;-37
2021/09/18 04:56:16;;;;;;;1.20;0.98;;;24.20;74.40;;;;;;5126293;28;20034;-36
2021/09/18 04:58:42;;;;;;;1.65;1.00;;;24.20;74.40;;;;;;5126151;28;20091;-36
2021/09/18 05:01:08;;;;;;;1.67;0.98;;;24.20;74.40;;;;;;5126271;28;20026;-36
2021/09/18 05:03:35;;;;;;;1.33;1.00;;;24.20;74.40;;;;;;5126323;28;20110;-36
2021/09/18 05:06:01;;;;;;;2.25;0.90;;;24.20;74.50;;;;;;5140286;27;20023;-37
2021/09/18 05:08:27;;;;;;;1.90;1.17;;;24.20;74.50;;;;;;5146618;27;20050;-37
2021/09/18 05:10:53;;;;;;;1.25;1.00;;;24.20;74.50;;;;;;5146808;27;20015;-36
2021/09/18 05:13:19;;;;;;;1.85;0.95;;;24.20;74.50;;;;;;5143605;27;20032;-37
2021/09/18 05:15:45;;;;;;;0.90;0.90;;;24.20;74.50;;;;;;5107425;28;20114;-36
2021/09/18 05:18:11;;;;;;;1.40;1.08;;;24.20;74.50;;;;;;5126084;28;20019;-37
2021/09/18 05:20:37;;;;;;;2.17;1.10;;;24.10;74.50;;;;;;5125630;28;20030;-36
2021/09/18 05:23:04;;;;;;;2.22;1.00;;;24.10;74.40;;;;;;5125946;28;20457;-37
2021/09/18 05:25:30;;;;;;;1.58;0.93;;;24.20;74.50;;;;;;5125482;28;20036;-37
2021/09/18 05:27:56;;;;;;;1.10;1.00;;;24.10;74.40;;;;;;5125379;28;20552;-37
2021/09/18 05:30:22;;;;;;;0.95;0.95;;;24.10;74.40;;;;;;5125629;28;20043;-36
2021/09/18 05:32:48;;;;;;;1.10;1.00;;;24.10;74.40;;;;;;5125851;28;20077;-36
2021/09/18 05:35:14;;;;;;;1.98;1.00;;;24.10;74.40;;;;;;5125453;28;20099;-37
2021/09/18 05:37:41;;;;;;;1.10;1.00;;;24.10;74.40;;;;;;5125491;28;20032;-37
2021/09/18 05:40:07;;;;;;;1.38;1.00;;;24.10;74.50;;;;;;5125635;28;20032;-37
2021/09/18 05:42:34;;;;;;;2.15;1.00;;;24.10;74.40;;;;;;5125369;28;20026;-36
2021/09/18 05:45:00;;;;;;;1.50;1.00;;;24.10;74.40;;;;;;5142524;27;20035;-37
2021/09/18 05:47:26;;;;;;;1.30;1.20;;;24.10;74.50;;;;;;5146041;27;20034;-37
2021/09/18 05:49:52;;;;;;;2.13;0.80;;;24.10;74.50;;;;;;5145506;27;20043;-37
2021/09/18 05:52:18;;;;;;;0.85;0.82;;;24.10;74.60;;;;;;5146051;27;20055;-36
2021/09/18 05:54:45;;;;;;;2.40;1.00;;;24.10;74.50;;;;;;5145428;27;20056;-36
2021/09/18 05:57:11;;;;;;;3.75;1.20;;;24.10;74.50;;;;;;5144117;27;20496;-37
2021/09/18 05:59:37;;;;;;;1.35;1.13;;;24.10;74.50;;;;;;5125868;27;20069;-36
2021/09/18 06:02:03;;;;;;;1.98;1.10;;;24.10;74.60;;;;;;5108942;28;20132;-36
2021/09/18 06:04:29;;;;;;;1.88;1.10;;;24.10;74.50;;;;;;5107198;27;20127;-36
2021/09/18 06:06:55;;;;;;;2.45;1.05;;;24.10;74.50;;;;;;5145430;27;20052;-36
2021/09/18 06:09:21;;;;;;;1.30;1.20;;;24.00;74.40;;;;;;5145569;27;20019;-36
2021/09/18 06:11:48;;;;;;;1.58;0.93;;;24.00;74.40;;;;;;5145530;27;20031;-36
2021/09/18 06:14:14;;;;;;;0.98;0.90;;;24.10;74.60;;;;;;5134255;27;20108;-37
2021/09/18 06:16:40;;;;;;;1.38;0.90;;;24.10;74.50;;;;;;5124565;28;20027;-37
2021/09/18 06:19:06;;;;;;;1.45;0.95;;;24.00;74.40;;;;;;5124640;28;20032;-37
2021/09/18 06:21:32;;;;;;;0.98;0.98;;;24.00;74.40;;;;;;5124761;28;20034;-36
2021/09/18 06:23:58;;;;;;;1.05;0.90;;;24.00;74.40;;;;;;5124639;28;20095;-37
2021/09/18 06:26:24;;;;;;;1.00;1.00;;;24.00;74.50;;;;;;5124393;28;20031;-37
2021/09/18 06:28:51;;;;;;;1.20;1.10;;;24.00;74.40;;;;;;5124407;28;20031;-36
2021/09/18 06:31:17;;;;;;;0.88;0.88;;;24.00;74.40;;;;;;5124506;28;20051;-36
2021/09/18 06:33:43;;;;;;;1.30;1.10;;;24.00;74.50;;;;;;5124463;28;20082;-37
2021/09/18 06:36:09;;;;;;;1.25;0.98;;;24.00;74.50;;;;;;5124432;28;20024;-36
2021/09/18 06:38:35;;;;;;;1.92;1.00;;;24.00;74.50;;;;;;5123617;28;20027;-37
2021/09/18 06:41:02;;;;;;;1.40;1.30;;;24.00;74.50;;;;;;5124602;28;20020;-36
2021/09/18 06:43:28;;;;;;;1.73;1.00;;;24.00;74.50;;;;;;5114962;27;20027;-36
2021/09/18 06:45:54;;;;;;;1.10;1.00;;;24.00;74.50;;;;;;5144316;27;20050;-36
2021/09/18 06:48:21;;;;;;;0.82;0.77;;;24.00;74.50;;;;;;5144837;27;20503;-37
2021/09/18 06:50:47;;;;;;;2.92;1.00;;;24.00;74.50;;;;;;5144687;27;20043;-36
2021/09/18 06:53:13;;;;;;;1.33;0.90;;;24.00;74.50;;;;;;5143329;27;20027;-36
2021/09/18 06:55:39;;;;;;;1.00;1.00;;;24.00;74.40;;;;;;5103550;28;20031;-36
2021/09/18 06:58:06;;;;;;;1.88;1.10;;;24.00;74.50;;;;;;5103725;28;20028;-37
2021/09/18 07:00:33;;;;;;;1.15;0.82;;;24.00;74.50;;;;;;5103317;28;20039;-36
2021/09/18 07:02:59;;;;;;;0.82;0.82;;;24.00;74.50;;;;;;5103742;28;20073;-36
2021/09/18 07:05:25;;;;;;;1.10;1.00;;;23.90;74.40;;;;;;5121964;27;20822;-37
2021/09/18 07:07:51;;;;;;;0.90;0.90;;;24.00;74.50;;;;;;5144192;27;20048;-36
2021/09/18 07:10:17;;;;;;;1.23;1.10;;;24.00;74.50;;;;;;5144717;27;20116;-37
2021/09/18 07:12:43;;;;;;;1.00;1.00;;;23.90;74.50;;;;;;5125974;28;20030;-36
2021/09/18 07:15:10;;;;;;;0.95;0.93;;;23.90;74.60;;;;;;5125199;28;20058;-37
2021/09/18 07:17:36;;;;;;;0.90;0.90;;;23.90;74.40;;;;;;5123753;28;20031;-36
2021/09/18 07:20:03;;;;;;;2.00;1.20;;;23.90;74.60;;;;;;5123947;28;20035;-37
2021/09/18 07:22:29;;;;;;;;;;;23.90;74.50;;;;;;5124482;28;20032;-36
2021/09/18 07:24:55;;;;;;;1.00;0.80;;;23.90;74.60;;;;;;5123787;28;20417;-37
2021/09/18 07:27:22;;;;;;;1.65;1.02;;;23.90;74.60;;;;;;5123635;28;20031;-37
2021/09/18 07:29:51;;;;;;;1.13;1.02;;;23.90;74.50;;;;;;5123650;28;20024;-36
2021/09/18 07:32:17;;;;;;;1.83;0.90;;;23.90;74.60;;;;;;5123910;28;20039;-36
2021/09/18 07:34:44;;;;;;;1.95;0.90;;;23.90;74.50;;;;;;5123580;28;20503;-37
2021/09/18 07:37:10;;;;;;;3.10;1.00;;;23.80;74.60;;;;;;5123720;28;20031;-36
2021/09/18 07:39:36;;;;;;;1.07;0.70;;;23.90;74.60;;;;;;5123599;28;20039;-36
2021/09/18 07:42:02;;;;;;;1.13;0.80;;;23.90;74.50;;;;;;5123610;28;20080;-38
2021/09/18 07:44:28;;;;;;;1.90;0.90;;;23.80;74.60;;;;;;5136194;28;20057;-36
2021/09/18 07:46:55;;;;;;;0.98;0.90;;;23.90;74.60;;;;;;5144025;28;20024;-36
2021/09/18 07:49:21;;;;;;;1.40;0.95;;;23.80;74.60;;;;;;5145054;27;20110;-36
2021/09/18 07:51:47;;;;;;;1.25;0.95;;;23.90;74.50;;;;;;5148263;27;20024;-37
2021/09/18 07:54:13;;;;;;;1.38;1.20;;;23.90;74.60;;;;;;5148064;27;20035;-37
2021/09/18 07:56:39;;;;;;;2.80;1.15;;;23.90;74.60;;;;;;5133980;27;20170;-36
2021/09/18 07:59:05;;;;;;;1.45;1.30;;;23.80;74.60;;;;;;5126994;28;20034;-37
2021/09/18 08:01:32;;;;;;;0.98;0.88;;;23.90;74.60;;;;;;5127435;28;20019;-37
2021/09/18 08:04:01;;;;;;;;;;;23.80;75.30;;;;;;5127676;28;20034;-36
2021/09/18 08:06:28;;;;;;;2.03;1.10;;;23.80;74.60;;;;;;5145405;27;19907;-37
2021/09/18 08:08:55;;;;;;;1.52;0.85;;;23.80;74.60;;;;;;5147899;27;20034;-37
2021/09/18 08:11:22;;;;;;;1.85;0.90;;;23.80;74.60;;;;;;5147624;27;20045;-36
2021/09/18 08:13:51;;;;;;;1.13;1.02;;;23.80;74.60;;;;;;5140231;27;20031;-36
2021/09/18 08:16:18;;;;;;;1.98;0.93;;;23.80;74.60;;;;;;5111584;28;20035;-37
2021/09/18 08:18:44;;;;;;;0.95;0.85;;;23.80;74.60;;;;;;5106427;28;20039;-36
2021/09/18 08:21:11;;;;;;;1.23;0.80;;;23.80;74.60;;;;;;5106545;28;20032;-36
2021/09/18 08:23:37;;;;;;;2.10;1.10;;;23.80;74.60;;;;;;5106575;28;20062;-36
2021/09/18 08:26:04;;;;;;;3.35;1.13;;;23.80;74.70;;;;;;5106276;28;20036;-37
2021/09/18 08:28:30;;;;;;;1.20;1.10;;;23.80;74.60;;;;;;5106218;28;20024;-36
2021/09/18 08:30:56;;;;;;;1.15;0.80;;;23.80;74.70;;;;;;5106121;28;20091;-36
2021/09/18 08:33:22;;;;;;;2.53;1.30;;;23.80;74.70;;;;;;5106268;28;20032;-36
2021/09/18 08:35:49;;;;;;;2.72;1.27;;;23.70;74.50;;;;;;5131105;27;20052;-37
2021/09/18 08:38:15;;;;;;;4.03;0.87;;;23.80;74.60;;;;;;5147097;27;20101;-37
2021/09/18 08:40:41;;;;;;;1.42;1.13;;;23.80;74.70;;;;;;5147218;27;20024;-37
2021/09/18 08:43:07;;;;;;;1.67;1.00;;;23.70;74.60;;;;;;5146932;27;20026;-36
2021/09/18 08:45:33;;;;;;;1.20;1.10;;;23.70;74.60;;;;;;5138536;27;20031;-37
2021/09/18 08:48:04;;;;;;;2.03;0.97;;;23.70;74.60;;;;;;5125002;28;21663;-36
2021/09/18 08:50:31;;;;;;;2.67;1.10;;;23.70;74.70;;;;;;5105941;28;20390;-37
2021/09/18 08:52:57;;;;;;;1.63;1.10;;;23.70;74.70;;;;;;5106052;28;20124;-37
2021/09/18 08:55:24;;;;;;;1.10;1.00;;;23.70;75.50;;;;;;5105782;28;20481;-36
2021/09/18 08:57:50;;;;;;;1.77;1.00;;;23.70;74.70;;;;;;5105489;28;20036;-37
2021/09/18 09:00:34;;;;;;;2.47;1.07;;;23.70;74.70;;;;;;5137309;27;20027;-36
2021/09/18 09:03:04;;;;;;;2.05;0.98;;;23.70;75.40;;;;;;5146735;27;20774;-37
2021/09/18 09:05:32;;;;;;;1.10;1.00;;;23.70;74.70;;;;;;5136885;27;20107;-36
2021/09/18 09:08:08;;;;;;;1.17;1.08;;;23.70;74.70;;;;;;5125965;28;20024;-37
2021/09/18 09:10:34;;;;;;;0.95;0.90;;;23.70;74.70;;;;;;5126171;28;20031;-37
2021/09/18 09:13:07;;;;;;;1.90;1.20;;;23.70;74.80;;;;;;5125848;28;20084;-37
2021/09/18 09:15:34;;;;;;;1.10;0.90;;;23.70;74.70;;;;;;5134458;27;20031;-37
2021/09/18 09:18:25;;;;;;;3.67;1.02;;;23.70;74.80;;;;;;5146364;27;20034;-37
2021/09/18 09:21:13;;;;;;;1.20;1.08;;;23.70;74.70;;;;;;5146761;27;20505;-37
2021/09/18 09:23:40;;;;;;;2.22;1.08;;;23.70;74.70;;;;;;5146415;27;20765;-37
2021/09/18 09:26:06;;;;;;;1.38;1.00;;;23.70;74.80;;;;;;5146317;27;20027;-37
2021/09/18 09:28:39;;;;;;;2.65;1.23;;;23.70;74.80;;;;;;5146059;27;20027;-37
2021/09/18 09:31:17;;;;;;;3.17;1.00;;;23.70;74.90;;;;;;5146331;27;20055;-37
2021/09/18 09:34:02;;;;;;;0.88;0.88;;;23.70;74.80;;;;;;5146343;27;20046;-37
2021/09/18 09:36:30;;;;;;;1.30;1.08;;;23.60;74.70;;;;;;5128093;27;20028;-36
2021/09/18 09:38:58;;;;;;;1.33;1.00;;;23.70;74.90;;;;;;5106832;28;20492;-36
2021/09/18 09:41:35;;;;;;;1.00;1.00;;;23.60;74.80;;;;;;5125321;28;20027;-37
2021/09/18 09:44:08;;;;;;;1.27;1.00;;;23.60;74.80;;;;;;5125469;28;20050;-37
2021/09/18 09:46:34;;;;;;;1.00;0.90;;;23.60;74.80;;;;;;5142440;27;20038;-41
2021/09/18 09:49:05;;;;;;;1.20;1.10;;;23.60;74.80;;;;;;5145633;27;20058;-37
2021/09/18 09:51:31;;;;;;;4.07;1.33;;;23.60;74.90;;;;;;5145885;27;20019;-37
2021/09/18 09:54:21;;;;;;;1.92;1.00;;;23.60;74.80;;;;;;5145823;27;20039;-37
2021/09/18 09:56:47;;;;;;;1.67;1.10;;;23.60;74.90;;;;;;5145840;27;20030;-37
2021/09/18 09:59:22;;;;;;;1.30;1.00;;;23.60;74.80;;;;;;5145400;27;20023;-37
2021/09/18 10:01:49;;;;;;;2.15;1.20;;;23.60;74.90;;;;;;5111614;27;20031;-37
2021/09/18 10:04:15;;;;;;;2.65;1.00;;;23.60;74.90;;;;;;5142478;27;20123;-37
2021/09/18 10:06:41;;;;;;;1.20;1.10;;;23.60;74.80;;;;;;5107050;28;20012;-37
2021/09/18 10:09:07;;;;;;;1.42;1.00;;;23.60;74.90;;;;;;5124876;28;20031;-37
2021/09/18 10:11:34;;;;;;;1.77;0.93;;;23.60;74.80;;;;;;5106519;28;20026;-37
2021/09/18 10:14:01;;;;;;;2.45;1.13;;;23.60;74.80;;;;;;5124805;28;20031;-37
2021/09/18 10:16:27;;;;;;;1.25;1.08;;;23.60;74.80;;;;;;5107265;28;20036;-36
2021/09/18 10:18:56;;;;;;;1.63;0.80;;;23.60;74.90;;;;;;5102924;28;20016;-37
2021/09/18 10:24:08;;;;;;;3.60;1.20;;;23.50;74.90;;;;;;5103406;28;20043;-37
2021/09/18 10:26:34;;;;;;;1.30;1.20;;;23.60;74.90;;;;;;5104446;28;20024;-37
2021/09/18 10:29:02;;;;;;;1.47;1.10;;;23.60;74.90;;;;;;5104288;28;20096;-36
2021/09/18 10:31:29;;;;;;;0.75;0.75;;;23.60;74.90;;;;;;5104153;28;20016;-36
2021/09/18 10:33:55;;;;;;;2.08;1.05;;;23.50;75.00;;;;;;5104215;28;20047;-37
2021/09/18 10:36:28;;;;;;;3.03;0.93;;;23.60;74.90;;;;;;5121287;28;20048;-36
2021/09/18 10:39:18;;;;;;;0.95;0.85;;;23.50;74.90;;;;;;5124422;28;20083;-37
2021/09/18 10:41:49;;;;;;;0.98;0.98;;;23.50;75.00;;;;;;5124493;28;20020;-36
2021/09/18 10:44:16;;;;;;;1.20;1.05;;;23.50;75.00;;;;;;5124353;28;20032;-38
2021/09/18 10:46:46;;;;;;;;;;;23.50;74.90;;;;;;5127461;27;20035;-37
2021/09/18 10:49:34;;;;;;;3.35;0.98;;;23.50;75.00;;;;;;5124162;28;19994;-37
2021/09/18 10:52:23;;;;;;;1.35;0.90;;;23.50;75.00;;;;;;5124417;28;20042;-36
2021/09/18 10:55:02;;;;;;;3.10;1.30;;;23.50;74.90;;;;;;5124329;28;20569;-37
2021/09/18 10:57:38;;;;;;;1.17;1.08;;;23.50;75.00;;;;;;5124412;28;20028;-36
2021/09/18 11:00:30;;;;;;;1.50;1.40;;;23.50;75.00;;;;;;5107396;28;20028;-37
2021/09/18 11:03:00;;;;;;;1.20;1.10;;;23.50;75.00;;;;;;5128074;27;20399;-36
2021/09/18 11:05:27;;;;;;;1.38;1.13;;;23.50;75.00;;;;;;5135630;28;20028;-36
2021/09/18 11:08:03;;;;;;;1.20;1.10;;;23.50;75.00;;;;;;5124083;28;20034;-37
2021/09/18 11:10:30;;;;;;;1.58;0.98;;;23.50;75.00;;;;;;5106158;28;20039;-37
2021/09/18 11:13:08;;;;;;;1.60;1.27;;;23.50;75.10;;;;;;5123987;28;20038;-35
2021/09/18 11:15:44;;;;;;;1.20;1.10;;;23.50;75.00;;;;;;5127610;28;20593;-37
2021/09/18 11:18:31;;;;;;;0.95;0.80;;;23.50;75.00;;;;;;5144712;28;20132;-37
2021/09/18 11:21:17;;;;;;;1.10;1.00;;;23.50;75.10;;;;;;5143705;28;20061;-37
2021/09/18 11:23:46;;;;;;;0.90;0.85;;;23.50;75.00;;;;;;5144729;27;20023;-37
2021/09/18 11:26:31;;;;;;;2.72;1.40;;;23.50;75.10;;;;;;5149025;27;20031;-36
2021/09/18 11:29:30;;;;;;;1.73;1.50;;;23.50;75.10;;;;;;5148879;27;20047;-37
2021/09/18 11:32:15;;;;;;;1.23;1.10;;;23.50;75.00;;;;;;5130823;27;20091;-36
2021/09/18 11:34:47;;;;;;;1.13;1.02;;;23.50;75.00;;;;;;5145518;27;20044;-39
2021/09/18 11:37:27;;;;;;;1.20;1.10;;;23.50;75.10;;;;;;5128252;28;20057;-36
2021/09/18 11:40:01;;;;;;;2.30;1.25;;;23.40;75.00;;;;;;5127414;28;20028;-37
2021/09/18 11:42:30;;;;;;;1.35;1.20;;;23.50;75.10;;;;;;5128123;28;20023;-37
2021/09/18 11:45:08;;;;;;;1.67;1.30;;;23.50;75.10;;;;;;5128053;28;20020;-37
2021/09/18 11:47:42;;;;;;;1.20;1.10;;;23.50;75.10;;;;;;5107455;28;20016;-37
2021/09/18 11:50:24;;;;;;;2.30;1.27;;;23.50;75.10;;;;;;5107174;28;20512;-37
2021/09/18 11:52:50;;;;;;;1.63;1.20;;;23.50;75.10;;;;;;5107670;28;20036;-36
2021/09/18 11:55:35;;;;;;;1.38;1.27;;;23.40;75.00;;;;;;5107274;28;20031;-37
2021/09/18 11:58:03;;;;;;;1.65;1.17;;;23.40;75.00;;;;;;5107125;28;20134;-37
2021/09/18 12:00:29;;;;;;;1.10;1.00;;;23.40;75.00;;;;;;5107055;28;20020;-37
2021/09/18 12:02:57;;;;;;;1.20;1.10;;;23.40;75.80;;;;;;5126805;27;20030;-37
2021/09/18 12:05:23;;;;;;;2.30;1.10;;;23.40;75.00;;;;;;5127342;28;20076;-36
2021/09/18 12:07:51;;;;;;;1.27;1.10;;;23.40;75.10;;;;;;5127487;28;20481;-36
2021/09/18 12:10:17;;;;;;;1.20;1.10;;;23.40;75.00;;;;;;5127169;28;20404;-37
2021/09/18 12:12:55;;;;;;;1.30;1.20;;;23.40;75.00;;;;;;5108946;28;20039;-37
2021/09/18 12:15:33;;;;;;;1.90;1.13;;;23.40;75.00;;;;;;5125357;28;20048;-37
2021/09/18 12:17:59;;;;;;;1.13;1.02;;;23.40;75.00;;;;;;5106898;28;20087;-36
2021/09/18 12:20:25;;;;;;;1.50;1.40;;;23.40;75.00;;;;;;5106574;28;20035;-36
2021/09/18 12:22:51;;;;;;;1.10;1.00;;;23.40;75.00;;;;;;5088716;28;20049;-36
2021/09/18 12:25:23;;;;;;;2.80;1.10;;;23.40;75.10;;;;;;5071961;28;20024;-37
2021/09/18 12:27:54;;;;;;;1.50;1.30;;;23.40;75.10;;;;;;5106859;28;20023;-37
2021/09/18 12:30:24;;;;;;;1.23;1.13;;;23.40;75.10;;;;;;5106412;28;20112;-36
2021/09/18 12:33:28;;;;;;;1.20;1.10;;;23.40;75.10;;;;;;5106298;28;20036;-37
2021/09/18 12:36:05;;;;;;;1.25;1.10;;;23.40;75.10;;;;;;5048082;28;20045;-36
2021/09/18 12:38:31;;;;;;;1.58;1.02;;;23.40;75.10;;;;;;5063229;28;20033;-36
2021/09/18 12:41:02;;;;;;;1.30;0.97;;;23.40;75.10;;;;;;5063544;28;20059;-36
2021/09/18 12:43:29;;;;;;;1.10;1.00;;;23.40;75.10;;;;;;5060268;28;20032;-36
2021/09/18 12:46:12;;;;;;;1.10;1.00;;;23.40;75.10;;;;;;5049896;28;20037;-37
2021/09/18 12:48:39;;;;;;;1.40;1.30;;;23.40;75.10;;;;;;5047027;28;20029;-37
2021/09/18 12:51:16;;;;;;;1.23;1.10;;;23.40;75.10;;;;;;5063396;28;20060;-36
2021/09/18 12:53:44;;;;;;;1.30;1.20;;;23.40;75.10;;;;;;5063211;28;20053;-36
2021/09/18 12:56:31;;;;;;;0.95;0.95;;;23.40;75.00;;;;;;5063270;28;20037;-36